Time;durP1;ratioP1;P1;durP2;ratioP2;P2;SDS_P1;SDS_P2;PMS_P1;PMS_P2;Temp;Humidity;BMP_temperature;BMP_pressure;BME280_temperature;BME280_humidity;BME280_pressure;Samples;Min_cycle;Max_cycle;Signal;HPM_P1;HPM_P2
2023/01/01 00:01:39;;;;;;;8.63;2.83;;;;;;;-145.18;100.00;60484.78;5052336;28;20091;-72
2023/01/01 00:04:09;;;;;;;13.15;3.92;;;;;;;-145.18;100.00;60484.78;5053817;28;20061;-75
2023/01/01 00:06:34;;;;;;;11.93;3.00;;;;;;;-145.18;100.00;60484.78;5050710;28;20117;-73
2023/01/01 00:11:44;;;;;;;10.15;3.20;;;;;;;-145.18;100.00;60484.78;5055475;28;20396;-76
2023/01/01 00:14:10;;;;;;;10.48;3.53;;;;;;;-145.18;100.00;60484.78;5045730;28;20025;-76
2023/01/01 00:16:35;;;;;;;11.75;3.72;;;;;;;-145.18;100.00;60484.78;5043506;28;20033;-71
2023/01/01 00:19:00;;;;;;;10.98;3.72;;;;;;;-145.18;100.00;60484.78;5058255;28;20021;-75
2023/01/01 00:21:26;;;;;;;9.00;3.20;;;;;;;-145.18;100.00;60484.78;5056660;28;20492;-72
2023/01/01 00:23:51;;;;;;;10.20;3.25;;;;;;;-145.18;100.00;60484.78;5056768;28;20029;-74
2023/01/01 00:26:17;;;;;;;12.02;3.65;;;;;;;-145.18;100.00;60484.78;5073492;28;20067;-75
2023/01/01 00:28:43;;;;;;;7.18;2.75;;;;;;;-145.18;100.00;60484.78;5057934;28;20070;-74
2023/01/01 00:31:10;;;;;;;64.43;3.97;;;;;;;-145.18;100.00;60484.78;5048904;28;20029;-71
2023/01/01 00:33:36;;;;;;;12.38;3.30;;;;;;;-145.18;100.00;60484.78;5052269;28;20170;-74
2023/01/01 00:36:10;;;;;;;7.07;2.67;;;;;;;-145.18;100.00;60484.78;5057954;28;20729;-74
2023/01/01 00:38:35;;;;;;;7.20;2.53;;;;;;;-145.18;100.00;60484.78;5060496;28;20087;-74
2023/01/01 00:41:01;;;;;;;11.25;3.30;;;;;;;-145.18;100.00;60484.78;5060781;28;20032;-72
2023/01/01 00:43:26;;;;;;;13.02;2.95;;;;;;;-145.18;100.00;60484.78;5059031;28;20073;-73
2023/01/01 00:45:52;;;;;;;6.85;2.40;;;;;;;-145.18;100.00;60484.78;5048501;28;20911;-72
2023/01/01 00:48:18;;;;;;;148.10;5.70;;;;;;;-145.18;100.00;60484.78;5041947;28;20037;-72
2023/01/01 00:50:43;;;;;;;8.90;2.58;;;;;;;-145.18;100.00;60484.78;5059489;28;20488;-73
2023/01/01 00:53:08;;;;;;;6.10;2.40;;;;;;;-145.18;100.00;60484.78;5063745;28;20020;-73
2023/01/01 00:55:34;;;;;;;11.00;2.80;;;;;;;-145.18;100.00;60484.78;5058402;28;20036;-74
2023/01/01 00:57:59;;;;;;;9.30;2.75;;;;;;;-145.18;100.00;60484.78;5061733;28;20025;-73
2023/01/01 01:00:25;;;;;;;12.38;3.40;;;;;;;-145.18;100.00;60484.78;5054205;28;20025;-74
2023/01/01 01:02:50;;;;;;;7.85;2.85;;;;;;;-145.18;100.00;60484.78;5037980;28;20116;-74
2023/01/01 01:05:16;;;;;;;8.57;2.45;;;;;;;-145.18;100.00;60484.78;5051927;28;20088;-75
2023/01/01 01:07:41;;;;;;;7.80;2.20;;;;;;;-145.18;100.00;60484.78;5042350;28;20068;-73
2023/01/01 01:10:08;;;;;;;8.07;1.92;;;;;;;-145.18;100.00;60484.78;5041351;28;20029;-73
2023/01/01 01:12:34;;;;;;;5.90;2.15;;;;;;;-145.18;100.00;60484.78;5038364;28;20021;-74
2023/01/01 01:15:00;;;;;;;10.35;3.28;;;;;;;-145.18;100.00;60484.78;5045514;28;20082;-73
2023/01/01 01:17:26;;;;;;;4.43;1.90;;;;;;;-145.18;100.00;60484.78;5048586;28;20044;-74
2023/01/01 01:19:51;;;;;;;11.52;2.83;;;;;;;-145.18;100.00;60484.78;5043147;28;20480;-74
2023/01/01 01:22:16;;;;;;;8.13;2.50;;;;;;;-145.18;100.00;60484.78;5046912;28;20566;-71
2023/01/01 01:24:42;;;;;;;9.55;2.38;;;;;;;-145.18;100.00;60484.78;5045785;28;20029;-71
2023/01/01 01:27:07;;;;;;;7.10;2.22;;;;;;;-145.18;100.00;60484.78;5045272;28;20002;-71
2023/01/01 01:29:33;;;;;;;9.90;2.80;;;;;;;-145.18;100.00;60484.78;5049210;28;20097;-72
2023/01/01 01:31:58;;;;;;;8.73;2.53;;;;;;;-145.18;100.00;60484.78;5052721;28;20025;-73
2023/01/01 01:34:24;;;;;;;9.40;2.88;;;;;;;-145.18;100.00;60484.78;5052409;28;20052;-71
2023/01/01 01:36:51;;;;;;;11.18;2.50;;;;;;;-145.18;100.00;60484.78;5048140;28;20029;-72
2023/01/01 01:39:17;;;;;;;8.27;3.22;;;;;;;-145.18;100.00;60484.78;5051236;28;20033;-74
2023/01/01 01:41:42;;;;;;;10.32;3.13;;;;;;;-145.18;100.00;60484.78;5055265;28;20097;-74
2023/01/01 01:44:42;;;;;;;12.50;2.83;;;;;;;-145.18;100.00;60484.78;5038026;28;20088;-74
2023/01/01 01:47:33;;;;;;;10.75;2.95;;;;;;;-145.18;100.00;60484.78;5042513;28;20033;-74
2023/01/01 01:50:12;;;;;;;7.55;2.40;;;;;;;-145.18;100.00;60484.78;5049979;28;20040;-74
2023/01/01 01:52:44;;;;;;;10.95;3.00;;;;;;;-145.18;100.00;60484.78;5045233;28;20032;-74
2023/01/01 01:55:09;;;;;;;;;;;;;;;-145.18;100.00;60484.78;5050858;28;20112;-73
2023/01/01 01:57:37;;;;;;;8.32;3.38;;;;;;;-145.18;100.00;60484.78;5061682;28;20050;-75
2023/01/01 02:00:03;;;;;;;9.98;2.60;;;;;;;-145.18;100.00;60484.78;5054796;28;20041;-74
2023/01/01 02:02:49;;;;;;;9.20;2.50;;;;;;;-145.18;100.00;60484.78;5039041;28;20030;-73
2023/01/01 02:05:17;;;;;;;9.43;2.83;;;;;;;-145.18;100.00;60484.78;5069459;22;20047;-62
2023/01/01 02:07:43;;;;;;;9.15;3.00;;;;;;;-145.18;100.00;60484.78;5068054;28;20064;-62
2023/01/01 02:10:09;;;;;;;10.20;3.10;;;;;;;-145.18;100.00;60484.78;5062783;28;20036;-62
2023/01/01 02:12:34;;;;;;;9.15;3.20;;;;;;;-145.18;100.00;60484.78;5067013;28;20029;-63
2023/01/01 02:15:00;;;;;;;10.90;3.33;;;;;;;-145.18;100.00;60484.78;5070982;28;20036;-63
2023/01/01 02:17:43;;;;;;;10.45;3.53;;;;;;;-145.18;100.00;60484.78;5071372;28;20384;-63
2023/01/01 02:20:32;;;;;;;9.07;3.60;;;;;;;-145.18;100.00;60484.78;5071131;28;20063;-64
2023/01/01 02:23:04;;;;;;;15.13;3.80;;;;;;;-145.18;100.00;60484.78;5069838;28;20550;-62
2023/01/01 02:25:50;;;;;;;10.70;3.92;;;;;;;-145.18;100.00;60484.78;5065207;28;20124;-63
2023/01/01 02:28:23;;;;;;;12.73;3.65;;;;;;;-145.18;100.00;60484.78;5070015;28;20036;-63
2023/01/01 02:30:52;;;;;;;11.60;3.80;;;;;;;-145.18;100.00;60484.78;5064585;28;20027;-64
2023/01/01 02:33:22;;;;;;;12.23;4.03;;;;;;;-145.18;100.00;60484.78;5060399;28;20100;-63
2023/01/01 02:35:53;;;;;;;10.43;4.10;;;;;;;-145.18;100.00;60484.78;5057776;28;20028;-63
2023/01/01 02:38:40;;;;;;;12.80;4.00;;;;;;;-145.18;100.00;60484.78;5071784;28;20443;-63
2023/01/01 02:41:18;;;;;;;11.67;3.97;;;;;;;-145.18;100.00;60484.78;5062372;28;20395;-64
2023/01/01 02:43:44;;;;;;;11.90;4.27;;;;;;;-145.18;100.00;60484.78;5071274;28;20064;-63
2023/01/01 02:46:11;;;;;;;9.48;2.97;;;;;;;-145.18;100.00;60484.78;5070147;28;20457;-63
2023/01/01 02:48:47;;;;;;;11.03;3.77;;;;;;;-145.18;100.00;60484.78;5071058;28;20043;-64
2023/01/01 02:51:12;;;;;;;10.63;4.50;;;;;;;-145.18;100.00;60484.78;5062761;28;20062;-63
2023/01/01 02:53:50;;;;;;;10.55;4.18;;;;;;;-145.18;100.00;60484.78;5068587;28;20040;-64
2023/01/01 02:56:40;;;;;;;11.23;3.50;;;;;;;-145.18;100.00;60484.78;5061564;28;20028;-63
2023/01/01 03:02:23;;;;;;;8.05;3.00;;;;;;;-145.18;100.00;60484.78;5067469;28;20048;-63
2023/01/01 03:05:07;;;;;;;11.82;4.13;;;;;;;-145.18;100.00;60484.78;5067249;28;20029;-64
2023/01/01 03:07:55;;;;;;;12.65;4.13;;;;;;;-145.18;100.00;60484.78;5067583;28;20039;-64
2023/01/01 03:10:32;;;;;;;12.73;3.65;;;;;;;-145.18;100.00;60484.78;5061093;28;20033;-63
2023/01/01 03:13:09;;;;;;;12.10;4.50;;;;;;;-145.18;100.00;60484.78;5071312;28;20020;-63
2023/01/01 03:15:58;;;;;;;13.85;4.35;;;;;;;-145.18;100.00;60484.78;5069995;28;20024;-64
2023/01/01 03:18:32;;;;;;;9.93;2.75;;;;;;;-145.18;100.00;60484.78;5069017;28;20051;-63
2023/01/01 03:21:02;;;;;;;14.18;3.28;;;;;;;-145.18;100.00;60484.78;5068128;28;20032;-63
2023/01/01 03:23:34;;;;;;;12.35;3.83;;;;;;;-145.18;100.00;60484.78;5071074;28;20036;-64
2023/01/01 03:26:04;;;;;;;14.98;4.35;;;;;;;-145.18;100.00;60484.78;5070574;28;20039;-63
2023/01/01 03:28:37;;;;;;;9.93;3.47;;;;;;;-145.18;100.00;60484.78;5071011;28;20020;-63
2023/01/01 03:31:03;;;;;;;15.68;4.88;;;;;;;-145.18;100.00;60484.78;5065662;28;20480;-63
2023/01/01 03:33:40;;;;;;;7.70;3.38;;;;;;;-145.18;100.00;60484.78;5069783;28;20029;-63
2023/01/01 03:36:14;;;;;;;7.32;2.38;;;;;;;-145.18;100.00;60484.78;5053259;28;20040;-63
2023/01/01 03:38:44;;;;;;;9.38;2.90;;;;;;;-145.18;100.00;60484.78;5069739;28;20487;-64
2023/01/01 03:41:48;;;;;;;13.43;2.97;;;;;;;-145.18;100.00;60484.78;5055416;28;22011;-64
2023/01/01 03:44:41;;;;;;;11.15;3.15;;;;;;;-145.18;100.00;60484.78;5046892;28;20040;-63
2023/01/01 03:47:06;;;;;;;29.20;3.25;;;;;;;-145.18;100.00;60484.78;5066665;28;20408;-63
2023/01/01 03:49:32;;;;;;;15.45;3.35;;;;;;;-145.18;100.00;60484.78;5062529;28;20036;-64
2023/01/01 03:52:29;;;;;;;10.25;3.13;;;;;;;-145.18;100.00;60484.78;5051668;28;20053;-64
2023/01/01 03:55:24;;;;;;;10.93;2.70;;;;;;;-145.18;100.00;60484.78;5062994;28;20041;-63
2023/01/01 03:58:08;;;;;;;6.25;2.92;;;;;;;-145.18;100.00;60484.78;5058826;28;20024;-63
2023/01/01 04:00:39;;;;;;;13.30;2.63;;;;;;;-145.18;100.00;60484.78;5070113;28;20032;-62
2023/01/01 04:03:12;;;;;;;8.95;2.72;;;;;;;-145.18;100.00;60484.78;5073583;28;20085;-62
2023/01/01 04:05:40;;;;;;;10.80;3.28;;;;;;;-145.18;100.00;60484.78;5069587;28;20158;-62
2023/01/01 04:08:07;;;;;;;12.43;2.78;;;;;;;-145.18;100.00;60484.78;5074098;28;20029;-62
2023/01/01 04:10:35;;;;;;;6.95;2.33;;;;;;;-145.18;100.00;60484.78;5068786;28;20027;-61
2023/01/01 04:13:04;;;;;;;8.68;2.88;;;;;;;-145.18;100.00;60484.78;5075510;28;20190;-62
2023/01/01 04:15:30;;;;;;;9.15;3.25;;;;;;;-145.18;100.00;60484.78;5072126;28;20025;-62
2023/01/01 04:17:56;;;;;;;10.55;3.50;;;;;;;-145.18;100.00;60484.78;5073849;28;20052;-62
2023/01/01 04:20:22;;;;;;;11.40;2.88;;;;;;;-145.18;100.00;60484.78;5069934;28;20547;-62
2023/01/01 04:22:47;;;;;;;7.63;2.85;;;;;;;-145.18;100.00;60484.78;5074502;28;20024;-61
2023/01/01 04:25:12;;;;;;;10.30;3.20;;;;;;;-145.18;100.00;60484.78;5073358;28;20361;-62
2023/01/01 04:27:39;;;;;;;7.43;2.85;;;;;;;-145.18;100.00;60484.78;5073799;28;20082;-62
2023/01/01 04:30:08;;;;;;;9.93;3.35;;;;;;;-145.18;100.00;60484.78;5070906;28;20052;-62
2023/01/01 04:32:33;;;;;;;7.25;2.95;;;;;;;-145.18;100.00;60484.78;5073876;28;20040;-62
2023/01/01 04:34:59;;;;;;;10.15;2.80;;;;;;;-145.18;100.00;60484.78;5072153;28;20387;-63
2023/01/01 04:37:25;;;;;;;8.00;2.78;;;;;;;-145.18;100.00;60484.78;5074328;28;20021;-63
2023/01/01 04:39:50;;;;;;;6.50;2.55;;;;;;;-145.18;100.00;60484.78;5066712;28;20053;-62
2023/01/01 04:42:15;;;;;;;9.53;3.03;;;;;;;-145.18;100.00;60484.78;5056330;28;20025;-62
2023/01/01 04:44:41;;;;;;;9.50;2.67;;;;;;;-145.18;100.00;60484.78;5071957;28;20036;-62
2023/01/01 04:47:06;;;;;;;8.77;3.10;;;;;;;-145.18;100.00;60484.78;5073713;28;20032;-62
2023/01/01 04:49:32;;;;;;;7.57;2.30;;;;;;;-145.18;100.00;60484.78;5069068;28;20025;-62
2023/01/01 04:51:57;;;;;;;7.23;2.20;;;;;;;-145.18;100.00;60484.78;5072440;28;20515;-62
2023/01/01 04:54:22;;;;;;;8.68;2.70;;;;;;;-145.18;100.00;60484.78;5069853;28;20522;-62
2023/01/01 04:56:48;;;;;;;10.15;2.42;;;;;;;-145.18;100.00;60484.78;5066639;28;20060;-63
2023/01/01 04:59:13;;;;;;;4.97;2.10;;;;;;;-145.18;100.00;60484.78;5071521;28;20032;-62
2023/01/01 05:01:39;;;;;;;7.93;1.92;;;;;;;-145.18;100.00;60484.78;5072174;28;20507;-62
2023/01/01 05:04:04;;;;;;;7.00;2.20;;;;;;;-145.18;100.00;60484.78;5071097;28;20029;-62
2023/01/01 05:06:29;;;;;;;6.47;2.07;;;;;;;-145.18;100.00;60484.78;5068636;28;20476;-62
2023/01/01 05:08:56;;;;;;;6.03;1.67;;;;;;;-145.18;100.00;60484.78;5067398;28;20031;-62
2023/01/01 05:11:24;;;;;;;9.43;2.00;;;;;;;-145.18;100.00;60484.78;5053723;28;20114;-62
2023/01/01 05:13:52;;;;;;;7.93;1.75;;;;;;;-145.18;100.00;60484.78;5070220;28;20476;-63
2023/01/01 05:16:20;;;;;;;8.00;1.77;;;;;;;-145.18;100.00;60484.78;5070360;28;20020;-62
2023/01/01 05:18:46;;;;;;;6.13;1.70;;;;;;;-145.18;100.00;60484.78;5072124;28;20029;-63
2023/01/01 05:21:17;;;;;;;6.30;2.00;;;;;;;-145.18;100.00;60484.78;5064810;28;20040;-62
2023/01/01 05:23:42;;;;;;;8.15;1.98;;;;;;;-145.18;100.00;60484.78;5073778;28;20032;-63
2023/01/01 05:26:09;;;;;;;4.65;1.50;;;;;;;-145.18;100.00;60484.78;5067526;28;20036;-62
2023/01/01 05:28:35;;;;;;;9.73;2.00;;;;;;;-145.18;100.00;60484.78;5073269;28;20100;-62
2023/01/01 05:31:04;;;;;;;5.57;1.70;;;;;;;-145.18;100.00;60484.78;5068608;28;20112;-62
2023/01/01 05:33:30;;;;;;;10.77;2.30;;;;;;;-145.18;100.00;60484.78;5073057;28;20052;-62
2023/01/01 05:35:55;;;;;;;5.80;1.70;;;;;;;-145.18;100.00;60484.78;5063975;28;20117;-63
2023/01/01 05:38:21;;;;;;;7.47;2.10;;;;;;;-145.18;100.00;60484.78;5073045;28;20029;-63
2023/01/01 05:40:46;;;;;;;7.47;1.70;;;;;;;-145.18;100.00;60484.78;5065777;28;20119;-62
2023/01/01 05:43:11;;;;;;;8.70;1.70;;;;;;;-145.18;100.00;60484.78;5072987;28;20029;-62
2023/01/01 05:45:37;;;;;;;8.48;1.75;;;;;;;-145.18;100.00;60484.78;5070450;28;20051;-62
2023/01/01 05:48:03;;;;;;;10.18;1.77;;;;;;;-145.18;100.00;60484.78;5064501;28;20036;-62
2023/01/01 05:50:28;;;;;;;9.93;1.70;;;;;;;-145.18;100.00;60484.78;5060507;28;20052;-62
2023/01/01 05:52:54;;;;;;;5.82;1.40;;;;;;;-145.18;100.00;60484.78;5057062;28;20033;-63
2023/01/01 05:55:19;;;;;;;6.20;1.40;;;;;;;-145.18;100.00;60484.78;5064932;28;20060;-62
2023/01/01 05:57:44;;;;;;;5.50;1.40;;;;;;;-145.18;100.00;60484.78;5069812;28;20032;-63
2023/01/01 06:00:10;;;;;;;5.97;1.40;;;;;;;-145.18;100.00;60484.78;5067782;28;20059;-62
2023/01/01 06:02:36;;;;;;;19.98;1.67;;;;;;;-145.18;100.00;60484.78;5053423;28;20087;-62
2023/01/01 06:05:01;;;;;;;11.23;1.73;;;;;;;-145.18;100.00;60484.78;5059065;28;20033;-62
2023/01/01 06:07:26;;;;;;;5.25;1.33;;;;;;;-145.18;100.00;60484.78;5059692;28;20027;-63
2023/01/01 06:09:52;;;;;;;3.85;1.20;;;;;;;-145.18;100.00;60484.78;5064055;28;20400;-62
2023/01/01 06:12:17;;;;;;;3.30;1.27;;;;;;;-145.18;100.00;60484.78;5072012;28;20095;-62
2023/01/01 06:14:42;;;;;;;7.03;1.52;;;;;;;-145.18;100.00;60484.78;5067509;28;20068;-63
2023/01/01 06:17:08;;;;;;;95.30;3.38;;;;;;;-145.18;100.00;60484.78;5072369;28;20029;-62
2023/01/01 06:19:33;;;;;;;3.42;1.17;;;;;;;-145.18;100.00;60484.78;5070724;28;20066;-63
2023/01/01 06:21:58;;;;;;;5.80;1.40;;;;;;;-145.18;100.00;60484.78;5072892;28;20020;-62
2023/01/01 06:24:24;;;;;;;9.60;1.40;;;;;;;-145.18;100.00;60484.78;5070714;28;20379;-62
2023/01/01 06:26:49;;;;;;;20.98;1.27;;;;;;;-145.18;100.00;60484.78;5071888;28;20082;-63
2023/01/01 06:29:15;;;;;;;60.78;2.80;;;;;;;-145.18;100.00;60484.78;5069420;28;20024;-61
2023/01/01 06:31:40;;;;;;;4.35;1.13;;;;;;;-145.18;100.00;60484.78;5070376;28;20032;-61
2023/01/01 06:34:06;;;;;;;2.63;1.15;;;;;;;-145.18;100.00;60484.78;5071081;28;20437;-62
2023/01/01 06:36:31;;;;;;;5.83;1.40;;;;;;;-145.18;100.00;60484.78;5067190;28;20032;-61
2023/01/01 06:39:02;;;;;;;4.38;1.45;;;;;;;-145.18;100.00;60484.78;5072452;28;20478;-61
2023/01/01 06:41:27;;;;;;;8.05;1.55;;;;;;;-145.18;100.00;60484.78;5071612;28;20510;-62
2023/01/01 06:43:54;;;;;;;6.73;1.37;;;;;;;-145.18;100.00;60484.78;5072001;28;20020;-61
2023/01/01 06:46:21;;;;;;;4.10;1.20;;;;;;;-145.18;100.00;60484.78;5064060;28;20078;-61
2023/01/01 06:48:49;;;;;;;6.95;1.70;;;;;;;-145.18;100.00;60484.78;5070411;28;20031;-62
2023/01/01 06:51:18;;;;;;;7.90;1.70;;;;;;;-145.18;100.00;60484.78;5069580;28;20085;-62
2023/01/01 06:53:44;;;;;;;14.93;1.85;;;;;;;-145.18;100.00;60484.78;5072395;28;20228;-62
2023/01/01 06:56:10;;;;;;;7.73;1.60;;;;;;;-145.18;100.00;60484.78;5067404;28;20032;-62
2023/01/01 06:58:36;;;;;;;6.97;1.70;;;;;;;-145.18;100.00;60484.78;5070783;28;20044;-62
2023/01/01 07:01:03;;;;;;;5.57;1.10;;;;;;;-145.18;100.00;60484.78;5068156;28;20038;-62
2023/01/01 07:03:28;;;;;;;8.57;1.57;;;;;;;-145.18;100.00;60484.78;5069984;28;20034;-62
2023/01/01 07:05:54;;;;;;;7.18;1.70;;;;;;;-145.18;100.00;60484.78;5069419;28;20032;-62
2023/01/01 07:08:19;;;;;;;8.70;1.90;;;;;;;-145.18;100.00;60484.78;5059992;28;20505;-62
2023/01/01 07:10:45;;;;;;;4.40;1.30;;;;;;;-145.18;100.00;60484.78;5056961;28;20487;-62
2023/01/01 07:13:10;;;;;;;7.43;1.50;;;;;;;-145.18;100.00;60484.78;5065779;28;20090;-61
2023/01/01 07:15:36;;;;;;;6.63;1.37;;;;;;;-145.18;100.00;60484.78;5057809;28;20032;-61
2023/01/01 07:18:01;;;;;;;3.17;0.97;;;;;;;-145.18;100.00;60484.78;5070892;28;20029;-61
2023/01/01 07:20:27;;;;;;;3.93;1.23;;;;;;;-145.18;100.00;60484.78;5068822;28;20526;-62
2023/01/01 07:22:52;;;;;;;8.45;1.55;;;;;;;-145.18;100.00;60484.78;5067546;28;20075;-62
2023/01/01 07:25:18;;;;;;;7.03;1.53;;;;;;;-145.18;100.00;60484.78;5066572;28;20454;-62
2023/01/01 07:27:43;;;;;;;8.83;1.80;;;;;;;-145.18;100.00;60484.78;5070640;28;20051;-62
2023/01/01 07:30:09;;;;;;;7.73;1.93;;;;;;;-145.18;100.00;60484.78;5068031;28;20039;-63
2023/01/01 07:32:34;;;;;;;6.40;2.07;;;;;;;-145.18;100.00;60484.78;5070333;28;20457;-63
2023/01/01 07:34:59;;;;;;;5.83;1.70;;;;;;;-145.18;100.00;60484.78;5066620;28;20017;-63
2023/01/01 07:37:25;;;;;;;4.47;1.30;;;;;;;-145.18;100.00;60484.78;5070300;28;20476;-63
2023/01/01 07:39:51;;;;;;;7.13;2.03;;;;;;;-145.18;100.00;60484.78;5053994;28;20031;-62
2023/01/01 07:42:16;;;;;;;7.97;1.97;;;;;;;-145.18;100.00;60484.78;5058511;28;20037;-63
2023/01/01 07:44:42;;;;;;;6.37;1.60;;;;;;;-145.18;100.00;60484.78;5062984;28;20025;-62
2023/01/01 07:47:21;;;;;;;8.18;1.50;;;;;;;-145.18;100.00;60484.78;5070694;28;20029;-63
2023/01/01 07:49:47;;;;;;;5.03;1.13;;;;;;;-145.18;100.00;60484.78;5058911;28;20037;-63
2023/01/01 07:52:12;;;;;;;6.17;1.83;;;;;;;-145.18;100.00;60484.78;5053156;28;20391;-63
2023/01/01 07:54:37;;;;;;;8.00;1.80;;;;;;;-145.18;100.00;60484.78;5069810;28;20024;-63
2023/01/01 07:57:03;;;;;;;6.77;1.67;;;;;;;-145.18;100.00;60484.78;5070719;28;20437;-63
2023/01/01 07:59:28;;;;;;;4.73;2.00;;;;;;;-145.18;100.00;60484.78;5068032;28;20044;-63
2023/01/01 08:01:54;;;;;;;6.93;1.47;;;;;;;-145.18;100.00;60484.78;5069795;28;20480;-63
2023/01/01 08:04:19;;;;;;;5.80;1.17;;;;;;;-145.18;100.00;60484.78;5066721;28;20163;-63
2023/01/01 08:06:44;;;;;;;8.30;1.73;;;;;;;-145.18;100.00;60484.78;5070509;28;20032;-63
2023/01/01 08:09:10;;;;;;;6.67;1.97;;;;;;;-145.18;100.00;60484.78;5068015;28;20489;-63
2023/01/01 08:11:35;;;;;;;5.57;1.70;;;;;;;-145.18;100.00;60484.78;5062217;28;20063;-63
2023/01/01 08:14:01;;;;;;;7.50;1.53;;;;;;;-145.18;100.00;60484.78;5056705;28;20033;-63
2023/01/01 08:16:26;;;;;;;6.57;1.47;;;;;;;-145.18;100.00;60484.78;5069713;28;20078;-63
2023/01/01 08:18:51;;;;;;;6.73;1.57;;;;;;;-145.18;100.00;60484.78;5068640;28;20070;-63
2023/01/01 08:21:17;;;;;;;5.93;1.60;;;;;;;-145.18;100.00;60484.78;5052287;28;20503;-63
2023/01/01 08:23:42;;;;;;;4.83;1.00;;;;;;;-145.18;100.00;60484.78;5061332;28;20154;-63
2023/01/01 08:26:15;;;;;;;5.80;1.50;;;;;;;-145.18;100.00;60484.78;5068838;28;20043;-63
2023/01/01 08:28:40;;;;;;;6.67;1.93;;;;;;;-145.18;100.00;60484.78;5071048;28;20020;-63
2023/01/01 08:31:05;;;;;;;2.83;1.00;;;;;;;-145.18;100.00;60484.78;5066575;28;20036;-62
2023/01/01 08:33:31;;;;;;;50.17;2.00;;;;;;;-145.18;100.00;60484.78;5069084;28;20120;-63
2023/01/01 08:35:56;;;;;;;5.23;1.10;;;;;;;-145.18;100.00;60484.78;5054767;28;20033;-62
2023/01/01 08:38:22;;;;;;;4.00;1.00;;;;;;;-145.18;100.00;60484.78;5057566;28;20111;-63
2023/01/01 08:40:47;;;;;;;3.20;0.87;;;;;;;-145.18;100.00;60484.78;5055480;28;20032;-63
2023/01/01 08:43:12;;;;;;;2.03;0.80;;;;;;;-145.18;100.00;60484.78;5070647;28;20074;-62
2023/01/01 08:45:38;;;;;;;5.87;1.10;;;;;;;-145.18;100.00;60484.78;5064364;28;20044;-63
2023/01/01 08:48:04;;;;;;;4.63;1.00;;;;;;;-145.18;100.00;60484.78;5073549;28;20483;-63
2023/01/01 08:50:29;;;;;;;3.47;0.93;;;;;;;-145.18;100.00;60484.78;5065572;28;20036;-62
2023/01/01 08:52:56;;;;;;;4.50;1.03;;;;;;;-145.18;100.00;60484.78;5072788;28;20468;-63
2023/01/01 08:55:22;;;;;;;3.33;1.07;;;;;;;-145.18;100.00;60484.78;5063396;28;20872;-63
2023/01/01 08:57:47;;;;;;;8.37;1.20;;;;;;;-145.18;100.00;60484.78;5074675;28;20107;-62
2023/01/01 09:00:13;;;;;;;5.07;0.83;;;;;;;-145.18;100.00;60484.78;5062368;28;20414;-62
2023/01/01 09:02:38;;;;;;;2.20;0.97;;;;;;;-145.18;100.00;60484.78;5072243;28;20085;-62
2023/01/01 09:05:04;;;;;;;3.27;1.00;;;;;;;-145.18;100.00;60484.78;5066742;28;20032;-62
2023/01/01 09:07:29;;;;;;;4.03;1.00;;;;;;;-145.18;100.00;60484.78;5074170;28;20095;-62
2023/01/01 09:09:55;;;;;;;4.70;1.10;;;;;;;-145.18;100.00;60484.78;5071262;28;20065;-62
2023/01/01 09:12:20;;;;;;;2.77;0.80;;;;;;;-145.18;100.00;60484.78;5072842;28;20028;-62
2023/01/01 09:14:46;;;;;;;5.63;0.83;;;;;;;-145.18;100.00;60484.78;5062341;28;20087;-62
2023/01/01 09:17:12;;;;;;;1.27;0.53;;;;;;;-145.18;100.00;60484.78;5071456;28;20039;-62
2023/01/01 09:19:37;;;;;;;3.67;0.80;;;;;;;-145.18;100.00;60484.78;5067803;28;20029;-62
2023/01/01 09:22:02;;;;;;;2.83;0.70;;;;;;;-145.18;100.00;60484.78;5069929;28;20067;-62
2023/01/01 09:24:28;;;;;;;3.27;0.60;;;;;;;-145.18;100.00;60484.78;5070206;28;20048;-62
2023/01/01 09:26:53;;;;;;;2.97;0.63;;;;;;;-145.18;100.00;60484.78;5074137;28;20027;-62
2023/01/01 09:29:20;;;;;;;1.20;0.40;;;;;;;-145.18;100.00;60484.78;5069528;28;20436;-62
2023/01/01 09:31:47;;;;;;;2.90;0.60;;;;;;;-145.18;100.00;60484.78;5072306;28;20074;-63
2023/01/01 09:34:12;;;;;;;2.87;0.60;;;;;;;-145.18;100.00;60484.78;5068115;28;20082;-62
2023/01/01 09:36:38;;;;;;;1.07;0.43;;;;;;;-145.18;100.00;60484.78;5072705;28;20032;-62
2023/01/01 09:39:04;;;;;;;2.73;0.63;;;;;;;-145.18;100.00;60484.78;5071597;28;20028;-63
2023/01/01 09:41:47;;;;;;;3.07;0.50;;;;;;;-145.18;100.00;60484.78;5064619;28;20055;-62
2023/01/01 09:44:18;;;;;;;2.33;0.50;;;;;;;-145.18;100.00;60484.78;5071031;28;20036;-63
2023/01/01 09:46:44;;;;;;;2.60;0.70;;;;;;;-145.18;100.00;60484.78;5065843;28;20090;-62
2023/01/01 09:49:14;;;;;;;4.30;0.70;;;;;;;-145.18;100.00;60484.78;5071218;28;20024;-62
2023/01/01 09:51:41;;;;;;;5.77;0.70;;;;;;;-145.18;100.00;60484.78;5065301;28;20028;-63
2023/01/01 09:54:20;;;;;;;4.10;0.70;;;;;;;-145.18;100.00;60484.78;5068330;28;20043;-63
2023/01/01 09:56:57;;;;;;;2.83;0.60;;;;;;;-145.18;100.00;60484.78;5060281;28;20028;-63
2023/01/01 09:59:22;;;;;;;2.67;0.50;;;;;;;-145.18;100.00;60484.78;5063855;28;20428;-62
2023/01/01 10:01:58;;;;;;;3.93;0.60;;;;;;;-145.18;100.00;60484.78;5069822;28;20120;-62
2023/01/01 10:04:33;;;;;;;4.40;0.60;;;;;;;-145.18;100.00;60484.78;5065453;28;20488;-63
2023/01/01 10:07:18;;;;;;;2.13;0.57;;;;;;;-145.18;100.00;60484.78;5059600;28;20147;-62
2023/01/01 10:09:54;;;;;;;3.53;0.70;;;;;;;-145.18;100.00;60484.78;5069468;28;20440;-63
2023/01/01 10:12:34;;;;;;;2.53;0.70;;;;;;;-145.18;100.00;60484.78;5063017;28;20031;-63
2023/01/01 10:15:11;;;;;;;3.80;0.80;;;;;;;-145.18;100.00;60484.78;5066651;28;20345;-63
2023/01/01 10:17:44;;;;;;;2.97;0.60;;;;;;;-145.18;100.00;60484.78;5068605;28;20067;-62
2023/01/01 10:20:21;;;;;;;4.67;0.80;;;;;;;-145.18;100.00;60484.78;5061125;28;20439;-63
2023/01/01 10:22:53;;;;;;;1.93;0.60;;;;;;;-145.18;100.00;60484.78;5067590;28;20047;-62
2023/01/01 10:25:21;;;;;;;4.45;0.80;;;;;;;-145.18;100.00;60484.78;5064512;28;20020;-63
2023/01/01 10:27:52;;;;;;;3.87;0.80;;;;;;;-145.18;100.00;60484.78;5059928;28;20024;-63
2023/01/01 10:30:20;;;;;;;3.35;0.90;;;;;;;-145.18;100.00;60484.78;5068992;28;20032;-63
2023/01/01 10:32:51;;;;;;;4.47;0.90;;;;;;;-145.18;100.00;60484.78;5069290;28;20067;-62
2023/01/01 10:35:30;;;;;;;2.17;0.60;;;;;;;-145.18;100.00;60484.78;5069575;28;20443;-62
2023/01/01 10:37:59;;;;;;;2.83;0.70;;;;;;;-145.18;100.00;60484.78;5069059;28;20533;-62
2023/01/01 10:40:28;;;;;;;3.27;0.83;;;;;;;-145.18;100.00;60484.78;5060552;28;20029;-62
2023/01/01 10:42:55;;;;;;;2.20;0.80;;;;;;;-145.18;100.00;60484.78;5065786;28;20426;-62
2023/01/01 10:45:44;;;;;;;7.70;1.10;;;;;;;-145.18;100.00;60484.78;5064176;28;20539;-62
2023/01/01 10:48:13;;;;;;;6.47;1.03;;;;;;;-145.18;100.00;60484.78;5066753;28;20090;-63
2023/01/01 10:50:50;;;;;;;3.37;0.80;;;;;;;-145.18;100.00;60484.78;5062877;28;20039;-63
2023/01/01 10:53:24;;;;;;;3.20;0.97;;;;;;;-145.18;100.00;60484.78;5066557;28;20020;-62
2023/01/01 10:55:58;;;;;;;3.67;1.07;;;;;;;-145.18;100.00;60484.78;5063834;28;20027;-63
2023/01/01 10:58:42;;;;;;;4.13;0.90;;;;;;;-145.18;100.00;60484.78;5063822;28;20479;-63
2023/01/01 11:01:11;;;;;;;5.37;0.90;;;;;;;-145.18;100.00;60484.78;5063129;28;20044;-62
2023/01/01 11:03:36;;;;;;;4.57;1.00;;;;;;;-145.18;100.00;60484.78;5060255;28;20044;-63
2023/01/01 11:06:11;;;;;;;5.20;1.10;;;;;;;-145.18;100.00;60484.78;5062231;28;20082;-63
2023/01/01 11:08:39;;;;;;;5.17;1.00;;;;;;;-145.18;100.00;60484.78;5068158;28;20024;-63
2023/01/01 11:11:05;;;;;;;5.50;1.17;;;;;;;-145.18;100.00;60484.78;5063746;28;20064;-62
2023/01/01 11:13:32;;;;;;;7.43;1.60;;;;;;;-145.18;100.00;60484.78;5064900;28;20494;-63
2023/01/01 11:15:58;;;;;;;4.90;1.00;;;;;;;-145.18;100.00;60484.78;5067355;28;20081;-62
2023/01/01 11:18:36;;;;;;;5.90;1.30;;;;;;;-145.18;100.00;60484.78;5065336;28;20074;-62
2023/01/01 11:21:04;;;;;;;7.50;1.70;;;;;;;-145.18;100.00;60484.78;5058538;28;20032;-63